Time;durP1;ratioP1;P1;durP2;ratioP2;P2;SDS_P1;SDS_P2;PMS_P1;PMS_P2;Temp;Humidity;BMP_temperature;BMP_pressure;BME280_temperature;BME280_humidity;BME280_pressure;Samples;Min_cycle;Max_cycle;Signal;HPM_P1;HPM_P2
2023/02/07 00:00:41;;;;;;;14.27;6.05;;;;;;;-1.54;97.86;101514.66;5032997;28;20094;-59
2023/02/07 00:03:07;;;;;;;12.93;6.00;;;;;;;-1.59;96.80;101519.41;5043420;28;20033;-59
2023/02/07 00:05:32;;;;;;;12.27;5.68;;;;;;;-1.49;99.53;101519.59;5039585;28;20111;-60
2023/02/07 00:07:57;;;;;;;12.82;6.20;;;;;;;-1.35;100.00;101512.41;5045541;28;20527;-60
2023/02/07 00:10:23;;;;;;;14.05;6.70;;;;;;;-1.34;100.00;101508.81;5043730;28;20045;-61
2023/02/07 00:12:49;;;;;;;12.23;5.80;;;;;;;-1.52;98.30;101500.44;5045866;28;20837;-60
2023/02/07 00:15:14;;;;;;;14.18;5.85;;;;;;;-1.54;98.02;101498.88;5040783;28;20021;-59
2023/02/07 00:17:40;;;;;;;13.02;6.18;;;;;;;-1.68;97.78;101499.84;5040577;28;20272;-60
2023/02/07 00:20:06;;;;;;;14.55;5.93;;;;;;;-1.76;99.84;101502.16;5032618;28;20056;-60
2023/02/07 00:22:31;;;;;;;11.32;6.20;;;;;;;-1.90;100.00;101499.66;5034116;28;20037;-60
2023/02/07 00:24:57;;;;;;;11.57;6.40;;;;;;;-1.94;100.00;101503.47;5044131;28;20472;-60
2023/02/07 00:27:22;;;;;;;13.95;6.57;;;;;;;-1.92;100.00;101491.88;5035056;28;20028;-60
2023/02/07 00:29:48;;;;;;;12.55;6.72;;;;;;;-1.85;100.00;101498.38;5045993;28;20021;-60
2023/02/07 00:32:13;;;;;;;13.38;6.47;;;;;;;-1.86;100.00;101495.88;5045523;28;20533;-60
2023/02/07 00:34:39;;;;;;;14.63;6.55;;;;;;;-1.90;100.00;101489.97;5043136;28;20053;-60
2023/02/07 00:37:04;;;;;;;12.77;5.68;;;;;;;-1.90;100.00;101494.41;5044773;28;20392;-61
2023/02/07 00:39:30;;;;;;;11.05;6.68;;;;;;;-1.89;100.00;101493.47;5037257;28;20082;-60
2023/02/07 00:41:55;;;;;;;10.75;5.50;;;;;;;-1.88;100.00;101503.84;5035724;28;20037;-60
2023/02/07 00:44:21;;;;;;;10.23;5.50;;;;;;;-1.76;100.00;101496.91;5042973;28;20041;-60
2023/02/07 00:46:46;;;;;;;14.00;5.55;;;;;;;-1.77;100.00;101508.38;5041902;28;20029;-60
2023/02/07 00:49:12;;;;;;;15.55;6.00;;;;;;;-1.67;100.00;101509.44;5040112;28;20032;-59
2023/02/07 00:51:37;;;;;;;9.38;4.80;;;;;;;-1.80;100.00;101506.81;5035803;28;20129;-60
2023/02/07 00:54:03;;;;;;;10.38;5.60;;;;;;;-1.75;100.00;101502.06;5042206;28;20017;-60
2023/02/07 00:56:29;;;;;;;10.88;5.85;;;;;;;-1.77;100.00;101508.38;5043860;28;20471;-60
2023/02/07 00:58:54;;;;;;;13.43;5.85;;;;;;;-1.87;100.00;101489.78;5034637;28;20131;-60
2023/02/07 01:01:20;;;;;;;17.85;6.30;;;;;;;-1.89;100.00;101502.19;5048589;28;20474;-60
2023/02/07 01:03:46;;;;;;;10.32;5.28;;;;;;;-2.04;100.00;101500.63;5035902;28;20522;-60
2023/02/07 01:06:11;;;;;;;10.02;5.35;;;;;;;-2.13;100.00;101488.09;5039602;28;20021;-60
2023/02/07 01:08:37;;;;;;;11.32;5.63;;;;;;;-2.16;100.00;101489.16;5039075;28;20122;-60
2023/02/07 01:11:08;;;;;;;12.80;5.90;;;;;;;-2.17;100.00;101482.22;5036696;28;20037;-60
2023/02/07 01:13:33;;;;;;;;;;;;;;;-2.25;100.00;101485.34;5038097;28;20028;-60
2023/02/07 01:15:59;;;;;;;11.63;5.45;;;;;;;-2.38;100.00;101485.34;5032836;28;19917;-60
2023/02/07 01:18:24;;;;;;;9.57;5.28;;;;;;;-2.23;100.00;101477.38;5032942;28;20036;-60
2023/02/07 01:20:49;;;;;;;11.68;5.88;;;;;;;-2.45;100.00;101470.94;5040853;28;20078;-60
2023/02/07 01:23:15;;;;;;;7.60;4.90;;;;;;;-2.48;100.00;101476.41;5039196;28;20032;-60
2023/02/07 01:25:42;;;;;;;11.70;5.82;;;;;;;-2.33;100.00;101481.56;5032761;28;20029;-60
2023/02/07 01:28:08;;;;;;;12.25;5.75;;;;;;;-2.06;100.00;101470.97;5042962;28;20029;-60
2023/02/07 01:30:33;;;;;;;7.93;5.20;;;;;;;-2.16;100.00;101468.13;5039733;28;20029;-59
2023/02/07 01:32:59;;;;;;;10.48;5.68;;;;;;;-2.23;100.00;101482.63;5037476;28;20091;-60
2023/02/07 01:35:24;;;;;;;12.48;5.85;;;;;;;-2.29;100.00;101488.31;5033217;28;20543;-59
2023/02/07 01:37:50;;;;;;;9.73;5.38;;;;;;;-2.33;100.00;101484.19;5046527;28;20029;-59
2023/02/07 01:40:15;;;;;;;9.77;5.68;;;;;;;-2.12;100.00;101485.38;5027899;28;20030;-60
2023/02/07 01:42:41;;;;;;;11.38;5.80;;;;;;;-2.29;100.00;101483.91;5039465;28;20091;-59
2023/02/07 01:45:26;;;;;;;11.00;6.05;;;;;;;-2.40;100.00;101482.00;5046183;28;20117;-59
2023/02/07 01:47:52;;;;;;;12.43;6.20;;;;;;;-2.17;100.00;101484.84;5062386;28;20029;-60
2023/02/07 01:50:17;;;;;;;11.77;6.65;;;;;;;-2.33;100.00;101481.56;5042183;28;20090;-60
2023/02/07 01:52:43;;;;;;;12.55;5.80;;;;;;;-2.36;100.00;101477.38;5041466;28;20242;-59
2023/02/07 01:55:14;;;;;;;11.23;5.80;;;;;;;-2.21;100.00;101480.75;5041789;28;20431;-60
2023/02/07 01:57:39;;;;;;;13.40;6.25;;;;;;;-2.19;100.00;101476.22;5044753;28;20021;-60
2023/02/07 02:00:05;;;;;;;9.68;6.07;;;;;;;-2.47;100.00;101477.25;5039714;28;20099;-60
2023/02/07 02:02:32;;;;;;;13.68;5.80;;;;;;;-2.68;100.00;101476.91;5035626;28;20035;-60
2023/02/07 02:04:58;;;;;;;9.48;5.40;;;;;;;-3.02;100.00;101473.88;5019251;28;20068;-60
2023/02/07 02:07:23;;;;;;;11.98;6.65;;;;;;;-2.99;100.00;101473.66;5041184;28;20147;-60
2023/02/07 02:09:49;;;;;;;13.05;5.85;;;;;;;-2.68;100.00;101466.41;5036296;28;20369;-60
2023/02/07 02:12:34;;;;;;;16.42;6.68;;;;;;;-2.59;100.00;101463.16;5044022;28;20037;-60
2023/02/07 02:15:02;;;;;;;13.43;7.13;;;;;;;-2.45;100.00;101459.59;5043528;28;20040;-60
2023/02/07 02:17:41;;;;;;;13.90;6.63;;;;;;;-2.89;100.00;101464.25;5037476;28;20036;-60
2023/02/07 02:20:48;;;;;;;11.10;6.20;;;;;;;-2.53;100.00;101462.75;5039194;28;20049;-60
2023/02/07 02:23:18;;;;;;;13.13;6.22;;;;;;;-2.53;100.00;101459.28;4988596;28;20485;-60
2023/02/07 02:26:07;;;;;;;11.32;6.22;;;;;;;-2.77;100.00;101465.25;5040221;28;20040;-59
2023/02/07 02:29:03;;;;;;;11.05;5.80;;;;;;;-3.18;100.00;101457.44;5034666;28;20048;-60
2023/02/07 02:31:34;;;;;;;12.13;5.57;;;;;;;-3.11;100.00;101464.81;5029884;28;20040;-60
2023/02/07 02:34:10;;;;;;;10.68;6.28;;;;;;;-3.14;100.00;101464.19;5039085;28;20471;-60
2023/02/07 02:36:44;;;;;;;11.88;5.95;;;;;;;-3.31;100.00;101458.22;5042576;28;20021;-60
2023/02/07 02:39:29;;;;;;;11.88;5.63;;;;;;;-3.27;100.00;101457.09;5023014;28;20314;-60
2023/02/07 02:42:18;;;;;;;14.40;6.05;;;;;;;-3.15;100.00;101451.97;5048056;28;20032;-59
2023/02/07 02:45:14;;;;;;;12.18;6.78;;;;;;;-3.25;100.00;101444.69;5010750;28;20060;-60
2023/02/07 02:47:41;;;;;;;12.75;5.97;;;;;;;-3.41;100.00;101445.81;5035254;28;20037;-60
2023/02/07 02:50:14;;;;;;;11.88;6.18;;;;;;;-3.07;100.00;101444.44;5026488;28;20399;-60
2023/02/07 02:52:39;;;;;;;15.90;6.03;;;;;;;-3.52;100.00;101446.47;5040127;28;20485;-60
2023/02/07 02:55:05;;;;;;;12.40;7.13;;;;;;;-3.42;100.00;101449.34;5026382;28;20036;-60
2023/02/07 02:57:55;;;;;;;16.38;7.18;;;;;;;-3.44;100.00;101452.09;5042139;28;20017;-60
2023/02/07 03:00:23;;;;;;;12.55;5.82;;;;;;;-3.50;100.00;101447.22;5035585;28;20021;-60
2023/02/07 03:02:51;;;;;;;16.45;6.97;;;;;;;-3.43;100.00;101445.88;5046254;28;20076;-60
2023/02/07 03:05:29;;;;;;;12.82;6.82;;;;;;;-3.36;100.00;101443.72;5044757;28;20044;-60
2023/02/07 03:08:11;;;;;;;14.68;7.15;;;;;;;-3.48;100.00;101448.78;5041270;28;20827;-60
2023/02/07 03:10:51;;;;;;;10.52;6.25;;;;;;;-3.38;100.00;101441.19;5047749;28;20048;-60
2023/02/07 03:13:37;;;;;;;10.85;6.70;;;;;;;-3.27;100.00;101441.34;5041864;28;20049;-60
2023/02/07 03:16:09;;;;;;;11.77;5.82;;;;;;;-3.42;100.00;101444.09;5040410;28;20403;-60
2023/02/07 03:18:47;;;;;;;11.02;5.50;;;;;;;-3.37;100.00;101442.88;5043424;28;20083;-60
2023/02/07 03:21:23;;;;;;;10.05;5.68;;;;;;;-3.44;100.00;101435.47;5048145;28;20487;-60
2023/02/07 03:23:49;;;;;;;17.30;5.65;;;;;;;-3.31;100.00;101434.63;5026756;28;20040;-60
2023/02/07 03:26:14;;;;;;;9.93;6.07;;;;;;;-3.31;100.00;101437.25;5043394;28;20374;-60
2023/02/07 03:28:40;;;;;;;12.77;6.53;;;;;;;-3.12;100.00;101436.03;5039436;28;20033;-59
2023/02/07 03:31:05;;;;;;;11.35;5.55;;;;;;;-3.32;100.00;101438.19;5038860;28;20052;-59
2023/02/07 03:33:31;;;;;;;8.15;4.82;;;;;;;-3.52;100.00;101433.34;5039962;28;20037;-59
2023/02/07 03:36:27;;;;;;;10.80;5.13;;;;;;;-3.57;100.00;101440.66;5009319;28;20160;-60
2023/02/07 03:38:52;;;;;;;14.15;5.32;;;;;;;-3.46;100.00;101440.84;5024094;28;20116;-60
2023/02/07 03:41:33;;;;;;;9.35;5.43;;;;;;;-3.42;100.00;101437.09;5045183;28;20037;-59
2023/02/07 03:43:59;;;;;;;7.97;4.57;;;;;;;-3.31;100.00;101428.53;5038513;28;20059;-60
2023/02/07 03:46:24;;;;;;;11.13;5.28;;;;;;;-3.43;100.00;101430.16;5046870;28;20025;-60
2023/02/07 03:48:50;;;;;;;11.98;5.45;;;;;;;-3.45;100.00;101421.53;5042616;28;20024;-60
2023/02/07 03:51:15;;;;;;;8.82;5.00;;;;;;;-3.57;100.00;101430.19;5039455;28;20060;-60
2023/02/07 03:53:40;;;;;;;7.95;4.60;;;;;;;-3.46;100.00;101430.34;5042840;28;20051;-59
2023/02/07 03:56:06;;;;;;;6.43;4.45;;;;;;;-3.39;100.00;101438.69;5043468;28;20037;-59
2023/02/07 03:58:31;;;;;;;8.55;4.82;;;;;;;-3.27;100.00;101433.50;5070363;28;20419;-60
2023/02/07 04:00:57;;;;;;;8.85;4.03;;;;;;;-3.27;100.00;101419.50;5042772;28;20242;-60
2023/02/07 04:03:23;;;;;;;7.90;4.60;;;;;;;-3.51;100.00;101435.91;5051480;28;20028;-60
2023/02/07 04:05:49;;;;;;;11.00;5.25;;;;;;;-3.75;100.00;101421.72;5039042;28;20116;-59
2023/02/07 04:08:14;;;;;;;10.48;5.30;;;;;;;-3.55;100.00;101413.41;5045406;28;20030;-60
2023/02/07 04:10:40;;;;;;;7.10;4.07;;;;;;;-3.03;100.00;101415.28;5040220;28;20049;-59
2023/02/07 04:13:05;;;;;;;7.45;4.35;;;;;;;-2.85;100.00;101423.72;5037032;28;20037;-60
2023/02/07 04:15:30;;;;;;;6.45;3.85;;;;;;;-2.70;100.00;101416.59;5045192;28;20048;-60
2023/02/07 04:17:56;;;;;;;6.13;4.07;;;;;;;-2.96;100.00;101410.50;5042315;28;20036;-60
2023/02/07 04:20:21;;;;;;;11.25;5.70;;;;;;;-3.49;100.00;101406.97;5041174;28;20421;-60
2023/02/07 04:22:49;;;;;;;10.38;5.95;;;;;;;-3.80;100.00;101419.38;5046891;28;20416;-59
2023/02/07 04:25:15;;;;;;;11.95;6.10;;;;;;;-3.95;100.00;101418.53;5040665;28;20162;-60
2023/02/07 04:27:40;;;;;;;9.75;5.60;;;;;;;-4.09;100.00;101418.59;5040998;28;20085;-60
2023/02/07 04:30:06;;;;;;;10.35;5.68;;;;;;;-4.02;100.00;101413.78;5041596;28;20025;-59
2023/02/07 04:32:32;;;;;;;16.10;6.22;;;;;;;-3.84;100.00;101417.91;5035330;28;20411;-60
2023/02/07 04:34:57;;;;;;;9.40;5.03;;;;;;;-4.17;100.00;101426.03;5038353;28;20045;-59
2023/02/07 04:37:23;;;;;;;5.43;3.53;;;;;;;-4.26;100.00;101422.22;5043228;28;20463;-60
2023/02/07 04:39:48;;;;;;;6.70;4.35;;;;;;;-4.19;100.00;101428.78;5036471;28;20110;-60
2023/02/07 04:42:13;;;;;;;6.43;3.72;;;;;;;-4.27;100.00;101440.63;5037668;28;20298;-59
2023/02/07 04:44:39;;;;;;;6.45;4.00;;;;;;;-4.26;100.00;101427.47;5040562;28;20050;-60
2023/02/07 04:47:04;;;;;;;7.70;4.60;;;;;;;-4.19;100.00;101428.78;5039015;28;20474;-60
2023/02/07 04:49:30;;;;;;;7.60;4.38;;;;;;;-4.27;100.00;101425.75;5066883;28;20024;-59
2023/02/07 04:51:55;;;;;;;6.50;4.10;;;;;;;-4.28;100.00;101424.09;5045037;28;20029;-60
2023/02/07 04:54:20;;;;;;;6.80;4.53;;;;;;;-4.30;100.00;101423.34;5046332;28;20032;-59
2023/02/07 04:56:46;;;;;;;5.93;3.80;;;;;;;-4.05;100.00;101420.06;5041272;28;20033;-59
2023/02/07 04:59:11;;;;;;;6.97;3.72;;;;;;;-4.01;100.00;101431.19;5041189;28;20432;-59
2023/02/07 05:01:37;;;;;;;5.43;3.38;;;;;;;-3.86;100.00;101425.00;5040583;28;20033;-60
2023/02/07 05:04:02;;;;;;;5.22;3.47;;;;;;;-3.93;100.00;101413.22;5054127;28;20041;-60
2023/02/07 05:06:28;;;;;;;7.75;3.63;;;;;;;-3.61;100.00;101418.22;5043318;28;20062;-59
2023/02/07 05:08:53;;;;;;;6.57;3.80;;;;;;;-3.63;100.00;101418.31;5041165;28;20132;-59
2023/02/07 05:11:19;;;;;;;5.88;4.13;;;;;;;-3.00;100.00;101413.41;5046126;28;20043;-58
2023/02/07 05:13:44;;;;;;;6.88;3.95;;;;;;;-3.22;100.00;101408.72;5045849;28;20055;-59
2023/02/07 05:16:09;;;;;;;8.65;4.05;;;;;;;-3.17;100.00;101417.13;5037920;28;20048;-59
2023/02/07 05:18:35;;;;;;;7.68;3.78;;;;;;;-3.00;100.00;101419.50;5038841;28;20033;-61
2023/02/07 05:21:00;;;;;;;6.72;3.75;;;;;;;-3.35;100.00;101420.00;5041112;28;20025;-58
2023/02/07 05:23:26;;;;;;;6.05;3.88;;;;;;;-3.36;100.00;101423.59;5036169;28;20040;-58
2023/02/07 05:25:51;;;;;;;4.80;3.30;;;;;;;-3.53;100.00;101431.69;5033330;28;20185;-58
2023/02/07 05:28:17;;;;;;;6.72;3.55;;;;;;;-3.77;100.00;101424.44;5043869;28;20487;-58
2023/02/07 05:30:42;;;;;;;6.80;3.75;;;;;;;-3.92;100.00;101415.75;5047730;28;20029;-58
2023/02/07 05:33:09;;;;;;;7.88;4.63;;;;;;;-4.00;100.00;101427.63;5045706;28;20071;-58
2023/02/07 05:35:36;;;;;;;6.13;3.97;;;;;;;-3.92;100.00;101428.00;5041258;28;20095;-60
2023/02/07 05:38:04;;;;;;;7.40;3.80;;;;;;;-3.80;100.00;101429.84;5043202;28;20032;-59
2023/02/07 05:40:30;;;;;;;8.85;4.30;;;;;;;-4.12;100.00;101430.09;5036425;28;20051;-59
2023/02/07 05:42:55;;;;;;;5.72;3.65;;;;;;;-4.15;100.00;101425.00;5036713;28;20028;-59
2023/02/07 05:45:21;;;;;;;6.13;3.97;;;;;;;-4.16;100.00;101425.13;5043831;28;20029;-59
2023/02/07 05:47:46;;;;;;;6.93;4.43;;;;;;;-3.83;100.00;101424.81;5031728;28;20041;-59
2023/02/07 05:50:12;;;;;;;6.57;3.60;;;;;;;-4.09;100.00;101429.06;5038223;28;20025;-59
2023/02/07 05:52:38;;;;;;;6.93;4.10;;;;;;;-4.36;100.00;101423.72;5041339;28;20033;-58
2023/02/07 05:55:04;;;;;;;7.15;3.95;;;;;;;-4.18;100.00;101425.22;5045846;28;20025;-59
2023/02/07 05:57:30;;;;;;;5.70;4.22;;;;;;;-3.69;100.00;101416.94;5047127;28;20402;-58
2023/02/07 05:59:55;;;;;;;8.60;4.18;;;;;;;-3.72;100.00;101419.75;5038539;28;20029;-59
2023/02/07 06:02:21;;;;;;;6.20;3.95;;;;;;;-3.54;100.00;101415.13;5046865;28;20028;-59
2023/02/07 06:04:47;;;;;;;11.27;5.22;;;;;;;-3.27;100.00;101411.63;5042309;28;20037;-58
2023/02/07 06:07:12;;;;;;;8.30;5.28;;;;;;;-3.32;100.00;101418.97;5040226;28;20163;-58
2023/02/07 06:09:37;;;;;;;8.02;4.60;;;;;;;-2.97;100.00;101408.81;5039248;28;20057;-58
2023/02/07 06:12:03;;;;;;;7.93;5.22;;;;;;;-2.99;100.00;101413.31;5041663;28;20033;-58
2023/02/07 06:14:28;;;;;;;7.75;5.07;;;;;;;-2.93;100.00;101418.16;5038296;28;20090;-58
2023/02/07 06:16:55;;;;;;;9.07;4.78;;;;;;;-3.03;100.00;101424.94;5042696;28;20034;-58
2023/02/07 06:19:21;;;;;;;6.28;4.40;;;;;;;-3.36;100.00;101433.25;5037047;28;20039;-59
2023/02/07 06:21:46;;;;;;;8.73;4.93;;;;;;;-3.90;100.00;101434.81;5044096;28;20092;-59
2023/02/07 06:24:11;;;;;;;13.48;6.20;;;;;;;-4.38;100.00;101441.28;5042783;28;20029;-59
2023/02/07 06:26:39;;;;;;;10.93;6.93;;;;;;;-4.78;100.00;101436.63;5045339;28;20037;-59
2023/02/07 06:29:05;;;;;;;13.05;6.47;;;;;;;-4.82;100.00;101440.38;5046407;28;20068;-59
2023/02/07 06:31:30;;;;;;;11.43;6.35;;;;;;;-4.73;100.00;101446.00;5045908;28;20047;-59
2023/02/07 06:33:55;;;;;;;11.38;7.05;;;;;;;-5.05;100.00;101444.28;5041292;28;20044;-59
2023/02/07 06:36:21;;;;;;;15.27;7.70;;;;;;;-5.10;100.00;101446.31;5044125;28;20102;-60
2023/02/07 06:38:47;;;;;;;16.50;7.95;;;;;;;-4.96;100.00;101457.78;5037596;28;20037;-60
2023/02/07 06:41:13;;;;;;;11.82;7.43;;;;;;;-4.92;100.00;101454.06;5046015;28;20044;-60
2023/02/07 06:43:39;;;;;;;12.82;7.13;;;;;;;-5.01;100.00;101463.28;5049351;28;20033;-61
2023/02/07 06:46:04;;;;;;;12.35;6.80;;;;;;;-4.96;100.00;101468.25;5045438;28;20033;-60
2023/02/07 06:48:30;;;;;;;11.23;6.65;;;;;;;-5.03;100.00;101473.81;5035558;28;20025;-60
2023/02/07 06:50:55;;;;;;;13.23;6.88;;;;;;;-4.92;100.00;101475.81;5044510;28;20067;-60
2023/02/07 06:53:21;;;;;;;12.88;6.85;;;;;;;-4.75;100.00;101471.41;5043235;28;20100;-60
2023/02/07 06:55:46;;;;;;;12.65;6.53;;;;;;;-4.69;100.00;101486.72;5040576;28;20385;-60
2023/02/07 06:58:12;;;;;;;14.38;7.43;;;;;;;-4.12;100.00;101477.22;5039296;28;20033;-60
2023/02/07 07:00:37;;;;;;;11.70;6.97;;;;;;;-4.42;100.00;101479.03;5043563;28;20060;-59
2023/02/07 07:03:03;;;;;;;9.50;6.13;;;;;;;-4.24;100.00;101487.56;5042573;28;20037;-58
2023/02/07 07:05:29;;;;;;;15.90;7.28;;;;;;;-3.70;100.00;101493.03;5042453;28;20028;-59
2023/02/07 07:07:55;;;;;;;14.95;7.45;;;;;;;-3.91;100.00;101488.19;5038577;28;20044;-59
2023/02/07 07:10:21;;;;;;;13.80;7.15;;;;;;;-4.01;100.00;101497.53;5034859;28;20403;-61
2023/02/07 07:12:47;;;;;;;12.75;7.80;;;;;;;-3.94;100.00;101496.22;5044557;28;20678;-60
2023/02/07 07:15:12;;;;;;;11.52;7.13;;;;;;;-3.79;100.00;101507.56;5044207;28;20025;-60
2023/02/07 07:17:38;;;;;;;11.73;6.65;;;;;;;-3.63;100.00;101517.94;5034934;28;20102;-60
2023/02/07 07:20:04;;;;;;;13.55;7.28;;;;;;;-3.84;100.00;101529.72;5040982;28;20029;-60
2023/02/07 07:22:29;;;;;;;15.95;8.38;;;;;;;-4.02;100.00;101540.41;5048264;28;20028;-59
2023/02/07 07:24:55;;;;;;;14.23;8.45;;;;;;;-3.58;100.00;101549.94;5041444;28;20036;-59
2023/02/07 07:27:20;;;;;;;19.17;9.07;;;;;;;-3.63;100.00;101549.38;5043156;28;20082;-60
2023/02/07 07:29:46;;;;;;;13.88;7.82;;;;;;;-3.83;100.00;101550.59;5034217;28;20388;-59
2023/02/07 07:32:11;;;;;;;13.10;7.75;;;;;;;-3.76;100.00;101556.31;5040403;28;20044;-60
2023/02/07 07:34:37;;;;;;;12.23;7.32;;;;;;;-3.76;100.00;101561.56;5045612;28;20035;-58
2023/02/07 07:37:03;;;;;;;12.48;7.43;;;;;;;-3.08;100.00;101563.47;5048108;28;20372;-60
2023/02/07 07:39:28;;;;;;;17.55;7.35;;;;;;;-3.15;100.00;101568.25;5048165;28;20035;-61
2023/02/07 07:41:54;;;;;;;12.30;7.15;;;;;;;-3.36;100.00;101567.81;5048479;28;20452;-60
2023/02/07 07:44:19;;;;;;;10.80;5.82;;;;;;;-2.70;100.00;101574.13;5046257;28;20031;-60
2023/02/07 07:46:45;;;;;;;11.10;6.05;;;;;;;-1.54;97.33;101570.72;5033879;28;20040;-59
2023/02/07 07:49:10;;;;;;;12.10;6.93;;;;;;;-1.17;88.04;101573.41;5031957;28;20232;-58
2023/02/07 07:51:35;;;;;;;11.20;5.85;;;;;;;-0.73;87.21;101584.31;5038625;28;20029;-61
2023/02/07 07:54:01;;;;;;;10.73;6.38;;;;;;;0.24;84.13;101585.03;5043750;28;20032;-59
2023/02/07 07:56:28;;;;;;;9.18;5.57;;;;;;;0.26;82.22;101591.84;5039519;28;20078;-59
2023/02/07 07:58:54;;;;;;;11.13;5.45;;;;;;;0.16;80.34;101590.88;5046671;28;20029;-59
2023/02/07 08:01:19;;;;;;;9.68;5.18;;;;;;;1.10;79.17;101592.34;5050442;28;20039;-59
2023/02/07 08:03:45;;;;;;;14.82;6.15;;;;;;;0.90;77.93;101598.34;5039963;28;20033;-59
2023/02/07 08:06:11;;;;;;;14.25;7.72;;;;;;;0.79;79.52;101601.84;5046588;28;20041;-59
2023/02/07 08:08:36;;;;;;;13.52;7.47;;;;;;;0.05;82.65;101599.63;5042760;28;20053;-58
2023/02/07 08:11:02;;;;;;;18.33;7.30;;;;;;;0.78;78.55;101597.53;5038606;28;20041;-58
2023/02/07 08:13:28;;;;;;;17.52;7.97;;;;;;;1.50;84.75;101589.09;5043792;28;20040;-58
2023/02/07 08:15:53;;;;;;;15.88;8.88;;;;;;;1.44;79.48;101597.53;5042995;28;20466;-58
2023/02/07 08:18:19;;;;;;;14.35;8.05;;;;;;;1.63;84.75;101599.50;5032600;28;20032;-58
2023/02/07 08:20:44;;;;;;;18.88;9.18;;;;;;;2.45;78.86;101583.78;5042559;28;20029;-59
2023/02/07 08:23:10;;;;;;;18.50;8.93;;;;;;;2.09;77.91;101579.78;5042004;28;20037;-58
2023/02/07 08:25:36;;;;;;;15.30;9.23;;;;;;;2.30;73.47;101585.91;5036585;28;20048;-58
2023/02/07 08:28:01;;;;;;;18.80;9.82;;;;;;;2.49;72.66;101594.91;5043569;28;20036;-59
2023/02/07 08:30:27;;;;;;;19.35;10.82;;;;;;;2.66;72.67;101596.94;5035808;28;20079;-59
2023/02/07 08:32:54;;;;;;;25.10;11.13;;;;;;;2.78;69.98;101597.69;5042835;28;20033;-58
2023/02/07 08:35:20;;;;;;;20.98;10.70;;;;;;;2.70;70.91;101603.66;5043914;28;20025;-59
2023/02/07 08:37:45;;;;;;;20.83;11.90;;;;;;;2.49;72.03;101605.50;5037043;28;20032;-58
2023/02/07 08:40:11;;;;;;;26.88;15.40;;;;;;;2.38;71.98;101604.63;5039033;28;20063;-59
2023/02/07 08:42:36;;;;;;;21.83;9.18;;;;;;;2.91;71.77;101611.53;5038620;28;20019;-59
2023/02/07 08:45:04;;;;;;;15.57;8.90;;;;;;;3.15;69.75;101608.56;5036776;28;20029;-58
2023/02/07 08:47:30;;;;;;;15.90;8.63;;;;;;;2.66;72.85;101604.91;5039196;28;20043;-61
2023/02/07 08:49:58;;;;;;;17.92;8.55;;;;;;;3.35;70.79;101606.78;5036561;28;20147;-60
2023/02/07 08:52:23;;;;;;;13.07;8.10;;;;;;;3.28;70.74;101610.13;5039789;28;20036;-59
2023/02/07 08:54:49;;;;;;;11.90;7.57;;;;;;;3.15;71.55;101611.22;5035659;28;20033;-58
2023/02/07 08:57:15;;;;;;;15.63;8.75;;;;;;;2.71;71.93;101613.28;5041395;28;20407;-59
2023/02/07 08:59:40;;;;;;;19.13;10.90;;;;;;;3.14;70.20;101616.63;5033333;28;20393;-59
2023/02/07 09:02:06;;;;;;;31.30;10.88;;;;;;;3.62;68.20;101603.47;5039706;28;20439;-59
2023/02/07 09:04:31;;;;;;;17.23;10.13;;;;;;;3.37;66.34;101603.97;5042796;28;20158;-59
2023/02/07 09:06:57;;;;;;;14.93;7.40;;;;;;;2.50;67.30;101594.81;5037819;28;20387;-58
2023/02/07 09:09:23;;;;;;;16.70;9.48;;;;;;;3.49;71.18;101596.75;5040210;28;20040;-59
2023/02/07 09:11:49;;;;;;;16.70;9.35;;;;;;;3.85;68.67;101584.63;5041918;28;20557;-58
2023/02/07 09:14:14;;;;;;;18.88;10.15;;;;;;;4.06;67.07;101593.22;5039871;28;20025;-59
2023/02/07 09:16:40;;;;;;;18.15;9.40;;;;;;;3.84;68.50;101588.22;5034808;28;20122;-58
2023/02/07 09:19:05;;;;;;;13.98;8.88;;;;;;;4.27;63.97;101577.13;5037638;28;20032;-59
2023/02/07 09:21:32;;;;;;;14.38;7.72;;;;;;;3.76;65.36;101577.50;5036169;28;20353;-59
2023/02/07 09:23:57;;;;;;;11.35;6.93;;;;;;;3.23;63.11;101571.59;5068423;28;20202;-59
2023/02/07 09:26:25;;;;;;;13.25;7.82;;;;;;;2.03;67.54;101570.56;5040251;28;20492;-59
2023/02/07 09:28:50;;;;;;;14.15;7.32;;;;;;;0.80;72.22;101571.81;5039159;28;20048;-58
2023/02/07 09:31:16;;;;;;;7.70;5.18;;;;;;;0.26;74.71;101562.00;5042880;28;20028;-58
2023/02/07 09:33:41;;;;;;;13.75;8.18;;;;;;;1.20;74.14;101555.41;5035874;28;20138;-58
2023/02/07 09:36:24;;;;;;;13.25;7.78;;;;;;;1.63;70.10;101555.41;5035044;28;20022;-58
2023/02/07 09:38:50;;;;;;;14.07;7.47;;;;;;;2.72;72.09;101548.75;5038925;28;20029;-59
2023/02/07 09:41:36;;;;;;;15.10;7.97;;;;;;;2.11;69.56;101552.22;5038166;28;20044;-59
2023/02/07 09:44:04;;;;;;;13.40;6.68;;;;;;;1.14;71.99;101555.94;5014445;28;20038;-59
2023/02/07 09:46:48;;;;;;;15.43;7.22;;;;;;;1.72;70.95;101561.72;5040425;28;20033;-59
2023/02/07 09:49:25;;;;;;;14.05;7.47;;;;;;;3.22;67.03;101566.44;5033901;28;20440;-59
2023/02/07 09:51:51;;;;;;;10.15;6.90;;;;;;;3.81;64.16;101569.94;5058440;28;20038;-59
2023/02/07 09:54:23;;;;;;;11.35;7.18;;;;;;;2.74;65.55;101565.34;5078511;28;20028;-59
2023/02/07 09:56:53;;;;;;;10.07;6.45;;;;;;;3.44;68.08;101554.72;5026361;28;20033;-58
2023/02/07 09:59:23;;;;;;;11.93;6.80;;;;;;;3.24;65.92;101546.78;5070803;28;20510;-59
2023/02/07 10:01:55;;;;;;;11.30;7.20;;;;;;;3.13;62.18;101544.25;5047335;28;20463;-59
2023/02/07 10:04:29;;;;;;;12.20;7.03;;;;;;;2.28;67.03;101542.88;5021480;28;20033;-60
2023/02/07 10:06:56;;;;;;;10.15;7.38;;;;;;;3.13;65.65;101559.31;5042663;28;20435;-59
2023/02/07 10:09:31;;;;;;;9.50;6.53;;;;;;;3.91;61.36;101554.03;5047759;28;20522;-60
2023/02/07 10:12:02;;;;;;;12.18;6.95;;;;;;;3.48;60.46;101558.78;5043575;28;20064;-60
2023/02/07 10:15:00;;;;;;;10.07;6.10;;;;;;;1.57;63.19;101555.06;5036540;28;20040;-60
2023/02/07 10:17:42;;;;;;;11.93;7.82;;;;;;;2.03;62.74;101554.69;5018896;28;20048;-60
2023/02/07 10:20:31;;;;;;;10.50;6.03;;;;;;;2.40;62.78;101562.16;5039158;28;20112;-60
2023/02/07 10:23:20;;;;;;;11.88;7.63;;;;;;;1.04;65.06;101556.66;5040555;28;20036;-60
2023/02/07 10:26:04;;;;;;;12.02;7.10;;;;;;;2.14;65.38;101556.44;5035272;28;20032;-60
2023/02/07 10:28:48;;;;;;;10.07;6.20;;;;;;;1.86;64.96;101556.13;5041344;28;20032;-59
2023/02/07 10:31:17;;;;;;;12.43;6.60;;;;;;;2.06;64.61;101558.91;5038115;28;20025;-60
2023/02/07 10:33:49;;;;;;;10.73;6.10;;;;;;;1.86;63.38;101563.22;5036857;28;20028;-59
2023/02/07 10:36:15;;;;;;;7.38;5.07;;;;;;;2.08;61.61;101557.78;5036782;28;20108;-59
2023/02/07 10:38:46;;;;;;;11.02;6.40;;;;;;;1.84;60.90;101559.84;5043833;28;20498;-59
2023/02/07 10:41:15;;;;;;;9.88;6.13;;;;;;;1.42;64.43;101565.94;5062779;28;20315;-59
2023/02/07 10:43:44;;;;;;;9.35;6.18;;;;;;;1.60;67.92;101562.72;5038043;28;20037;-59
2023/02/07 10:46:13;;;;;;;13.68;6.72;;;;;;;3.16;63.43;101565.16;5039983;28;20039;-59
2023/02/07 10:48:39;;;;;;;11.73;7.30;;;;;;;2.98;64.41;101564.16;5037183;28;20586;-59
2023/02/07 10:51:28;;;;;;;12.10;7.95;;;;;;;4.65;62.29;101561.22;5039796;28;20024;-59
2023/02/07 10:54:01;;;;;;;11.93;6.97;;;;;;;3.84;58.52;101562.56;5014444;28;20480;-59
2023/02/07 10:56:27;;;;;;;12.13;7.57;;;;;;;4.36;60.54;101558.66;5068549;28;20028;-59
2023/02/07 10:58:55;;;;;;;11.40;7.53;;;;;;;4.59;60.61;101559.94;5025595;28;20029;-59
2023/02/07 11:01:28;;;;;;;9.75;6.70;;;;;;;4.84;57.00;101552.28;5019531;28;20016;-59
2023/02/07 11:03:53;;;;;;;13.05;8.23;;;;;;;4.13;57.38;101553.69;5036406;28;20068;-59
2023/02/07 11:06:27;;;;;;;11.38;7.22;;;;;;;4.59;56.24;101543.19;5025244;28;20051;-59
2023/02/07 11:09:19;;;;;;;11.38;7.57;;;;;;;5.07;56.68;101536.78;5033824;28;20199;-59
2023/02/07 11:11:51;;;;;;;12.43;7.65;;;;;;;4.47;55.84;101535.44;5036383;28;20029;-59
2023/02/07 11:14:20;;;;;;;12.20;7.65;;;;;;;4.63;57.29;101533.97;5044563;28;20033;-59
2023/02/07 11:16:46;;;;;;;10.38;7.38;;;;;;;4.72;55.26;101538.41;5039271;28;20028;-59
2023/02/07 11:19:19;;;;;;;10.65;7.47;;;;;;;4.27;55.97;101537.31;5038853;28;20464;-60
2023/02/07 11:21:44;;;;;;;11.02;6.72;;;;;;;3.43;58.27;101545.13;5029565;28;20025;-59